createdAt,value
2022-07-25T00:03:20.599Z,99.90
2022-07-25T00:07:29.985Z,99.90
2022-07-25T00:11:39.141Z,99.90
2022-07-25T00:15:47.858Z,99.90
2022-07-25T00:19:56.436Z,99.90
2022-07-25T00:24:05.332Z,99.90
2022-07-25T00:28:14.199Z,99.90
2022-07-25T00:32:22.747Z,99.90
2022-07-25T00:36:31.360Z,99.90
2022-07-25T00:40:40.112Z,99.90
2022-07-25T00:44:59.932Z,99.90
2022-07-25T00:49:08.602Z,99.90
2022-07-25T00:53:17.561Z,99.90
2022-07-25T00:57:26.244Z,99.90
2022-07-25T01:01:34.862Z,99.90
2022-07-25T01:05:43.822Z,99.90
2022-07-25T01:09:52.877Z,99.90
2022-07-25T01:14:01.824Z,99.90
2022-07-25T01:18:10.555Z,99.90
2022-07-25T01:22:19.086Z,99.90
2022-07-25T01:26:27.692Z,99.90
2022-07-25T01:30:36.404Z,99.90
2022-07-25T01:34:44.962Z,99.90
2022-07-25T01:38:54.176Z,99.90
2022-07-25T01:43:02.967Z,99.90
2022-07-25T01:47:11.581Z,99.90
2022-07-25T01:51:20.512Z,99.90
2022-07-25T01:55:29.323Z,99.90
2022-07-25T01:59:40.821Z,99.90
2022-07-25T02:04:09.271Z,99.90
2022-07-25T02:08:18.205Z,99.90
2022-07-25T02:12:27.076Z,99.90
2022-07-25T02:16:35.770Z,99.90
2022-07-25T02:20:44.329Z,99.90
2022-07-25T02:24:52.937Z,99.90
2022-07-25T02:29:01.586Z,99.90
2022-07-25T02:33:10.185Z,99.90
2022-07-25T02:37:18.844Z,99.90
2022-07-25T02:41:33.306Z,99.90
2022-07-25T02:45:42.002Z,99.90
2022-07-25T02:49:50.595Z,99.90
2022-07-25T02:53:59.369Z,99.90
2022-07-25T02:58:08.176Z,99.90
2022-07-25T03:02:17.151Z,99.90
2022-07-25T03:06:26.293Z,99.90
2022-07-25T03:10:36.361Z,99.90
2022-07-25T03:14:44.982Z,99.90
2022-07-25T03:18:53.809Z,99.90
2022-07-25T03:23:02.429Z,99.90
2022-07-25T03:27:11.103Z,99.90
2022-07-25T03:31:21.623Z,99.90
2022-07-25T03:35:30.262Z,99.90
2022-07-25T03:39:38.947Z,99.90
2022-07-25T03:43:47.632Z,99.90
2022-07-25T03:47:56.222Z,99.90
2022-07-25T03:52:04.973Z,99.90
2022-07-25T03:56:13.599Z,99.90
2022-07-25T04:00:22.385Z,99.90
2022-07-25T04:04:31.063Z,99.90
2022-07-25T04:08:59.082Z,99.90
2022-07-25T04:13:08.364Z,99.90
2022-07-25T04:17:17.269Z,99.90
2022-07-25T04:21:26.387Z,99.90
2022-07-25T04:25:34.996Z,99.90
2022-07-25T04:29:43.590Z,99.90
2022-07-25T04:33:52.137Z,99.90
2022-07-25T04:38:00.751Z,99.90
2022-07-25T04:42:09.431Z,99.90
2022-07-25T04:46:25.975Z,99.90
2022-07-25T04:50:34.809Z,99.90
2022-07-25T04:54:43.405Z,99.90
2022-07-25T04:58:51.985Z,99.90
2022-07-25T05:03:00.839Z,99.90
2022-07-25T05:07:09.448Z,99.90
2022-07-25T05:11:18.116Z,99.90
2022-07-25T05:15:27.006Z,99.90
2022-07-25T05:19:36.881Z,99.90
2022-07-25T05:23:45.485Z,99.90
2022-07-25T05:27:55.855Z,99.90
2022-07-25T05:32:04.546Z,99.90
2022-07-25T05:36:13.379Z,99.90
2022-07-25T05:40:22.800Z,99.90
2022-07-25T05:44:31.501Z,99.90
2022-07-25T05:48:40.163Z,99.90
2022-07-25T05:52:48.728Z,99.90
2022-07-25T05:56:57.414Z,99.90
2022-07-25T06:01:06.101Z,99.90
2022-07-25T06:05:14.800Z,99.90
2022-07-25T06:09:24.440Z,99.90
2022-07-25T06:13:34.640Z,99.90
2022-07-25T06:17:43.981Z,99.90
2022-07-25T06:21:52.633Z,99.90
2022-07-25T06:26:21.884Z,99.90
2022-07-25T06:30:30.699Z,99.90
2022-07-25T06:34:39.373Z,99.90
2022-07-25T06:38:48.496Z,99.90
2022-07-25T06:42:57.310Z,99.90
2022-07-25T06:47:06.208Z,99.90
2022-07-25T06:51:15.231Z,99.90
2022-07-25T06:55:43.137Z,99.90
2022-07-25T06:59:51.688Z,99.90
2022-07-25T07:04:00.310Z,99.90
2022-07-25T07:08:08.938Z,99.90
2022-07-25T07:12:17.553Z,99.90
2022-07-25T07:16:26.288Z,99.90
2022-07-25T07:20:35.791Z,99.90
2022-07-25T07:24:45.131Z,99.90
2022-07-25T07:28:56.027Z,99.90
2022-07-25T07:33:04.951Z,99.90
2022-07-25T07:37:13.567Z,99.90
2022-07-25T07:41:22.252Z,99.90
2022-07-25T07:45:32.177Z,99.90
2022-07-25T07:49:40.858Z,99.90
2022-07-25T07:54:07.126Z,99.90
2022-07-25T07:58:19.486Z,99.90
2022-07-25T08:02:28.111Z,99.90
2022-07-25T08:06:36.692Z,99.90
2022-07-25T08:10:48.448Z,99.90
2022-07-25T08:15:17.615Z,99.90
2022-07-25T08:19:26.258Z,99.90
2022-07-25T08:23:37.841Z,99.90
2022-07-25T08:27:46.846Z,99.90
2022-07-25T08:31:55.444Z,99.90
2022-07-25T08:36:04.154Z,99.90
2022-07-25T08:40:32.966Z,99.90
2022-07-25T08:44:44.281Z,99.90
2022-07-25T08:48:53.309Z,99.90
2022-07-25T08:53:30.349Z,99.90
2022-07-25T08:57:12.291Z,99.90
2022-07-25T09:01:21.004Z,99.90
2022-07-25T09:05:31.531Z,99.90
2022-07-25T09:09:40.416Z,99.90
2022-07-25T09:13:52.104Z,99.90
2022-07-25T09:18:03.381Z,99.90
2022-07-25T09:22:13.020Z,99.90
2022-07-25T09:26:24.017Z,99.90
2022-07-25T09:30:32.707Z,99.90
2022-07-25T09:34:43.470Z,99.90
2022-07-25T09:39:01.553Z,99.90
2022-07-25T09:43:10.472Z,99.90
2022-07-25T09:47:19.310Z,99.90
2022-07-25T09:51:29.052Z,99.90
2022-07-25T09:55:37.662Z,99.90
2022-07-25T09:59:47.221Z,99.90
2022-07-25T10:04:01.702Z,99.90
2022-07-25T10:08:11.564Z,99.10
2022-07-25T10:12:22.232Z,97.20
2022-07-25T10:16:30.895Z,95.30
2022-07-25T10:20:40.059Z,94.50
2022-07-25T10:24:49.185Z,95.60
2022-07-25T10:28:58.445Z,95.50
2022-07-25T10:33:10.263Z,91.90
2022-07-25T10:37:21.067Z,92.50
2022-07-25T10:41:30.113Z,92.80
2022-07-25T10:46:05.531Z,91.70
2022-07-25T10:50:34.385Z,91.90
2022-07-25T10:54:56.335Z,93.30
2022-07-25T10:59:05.226Z,92.50
2022-07-25T11:03:18.091Z,91.90
2022-07-25T11:07:24.899Z,92.00
2022-07-25T11:11:38.621Z,91.40
2022-07-25T11:15:48.859Z,92.50
2022-07-25T11:20:06.266Z,91.40
2022-07-25T11:24:15.198Z,91.50
2022-07-25T11:28:23.841Z,92.00
2022-07-25T11:32:41.323Z,92.90
2022-07-25T11:36:50.563Z,93.10
2022-07-25T11:40:59.487Z,93.30
2022-07-25T11:45:23.533Z,94.30
2022-07-25T11:49:33.364Z,94.80
2022-07-25T11:53:44.613Z,95.60
2022-07-25T11:57:56.330Z,95.70
2022-07-25T12:02:05.030Z,97.00
2022-07-25T12:06:14.209Z,96.50
2022-07-25T12:10:34.104Z,97.80
2022-07-25T12:14:45.888Z,98.70
2022-07-25T12:18:54.502Z,99.80
2022-07-25T12:23:06.300Z,99.90
2022-07-25T12:27:14.951Z,99.90
2022-07-25T12:31:26.483Z,99.90
2022-07-25T12:35:37.358Z,99.90
2022-07-25T12:39:46.031Z,99.90
2022-07-25T12:49:04.633Z,99.90
2022-07-25T12:53:13.812Z,99.90
2022-07-25T12:57:22.398Z,99.60
2022-07-25T13:01:31.136Z,98.60
2022-07-25T13:05:41.346Z,97.80
2022-07-25T13:09:49.947Z,97.40
2022-07-25T13:13:58.661Z,97.70
2022-07-25T13:18:07.544Z,95.80
2022-07-25T13:22:16.957Z,94.90
2022-07-25T13:26:26.212Z,94.00
2022-07-25T13:30:34.821Z,93.90
2022-07-25T13:34:43.781Z,94.00
2022-07-25T13:38:52.422Z,93.80
2022-07-25T13:43:01.036Z,94.40
2022-07-25T13:47:09.770Z,93.80
2022-07-25T13:51:19.181Z,93.90
2022-07-25T13:55:29.303Z,94.40
2022-07-25T13:59:38.241Z,95.50
2022-07-25T14:03:46.941Z,96.30
2022-07-25T14:07:55.568Z,95.50
2022-07-25T14:12:04.540Z,95.40
2022-07-25T14:16:16.945Z,95.80
2022-07-25T14:20:25.795Z,97.10
2022-07-25T14:24:34.619Z,98.20
2022-07-25T14:28:43.673Z,98.20
2022-07-25T14:32:52.355Z,99.80
2022-07-25T14:37:08.510Z,99.80
2022-07-25T14:41:17.377Z,99.90
2022-07-25T14:45:26.010Z,99.90
2022-07-25T14:49:35.009Z,99.90
2022-07-25T14:53:43.612Z,99.90
2022-07-25T14:57:52.228Z,99.90
2022-07-25T15:02:00.874Z,99.90
2022-07-25T15:06:10.530Z,99.90
2022-07-25T15:10:19.261Z,99.90
2022-07-25T15:14:29.339Z,99.90
2022-07-25T15:18:52.521Z,99.90
2022-07-25T15:22:48.886Z,99.90
2022-07-25T15:26:58.275Z,99.90
2022-07-25T15:31:07.766Z,99.90
2022-07-25T15:35:31.573Z,99.90
2022-07-25T15:39:40.251Z,99.60
2022-07-25T15:43:48.857Z,99.90
2022-07-25T15:47:57.453Z,99.90
2022-07-25T15:52:06.377Z,99.90
2022-07-25T15:56:18.286Z,99.90
2022-07-25T16:00:29.943Z,98.80
2022-07-25T16:04:39.143Z,95.20
2022-07-25T16:08:48.633Z,94.40
2022-07-25T16:12:57.286Z,94.10
2022-07-25T16:17:07.622Z,94.10
2022-07-25T16:21:16.328Z,94.90
2022-07-25T16:25:25.478Z,95.30
2022-07-25T16:29:34.255Z,94.10
2022-07-25T16:33:42.859Z,94.10
2022-07-25T16:37:51.821Z,94.60
2022-07-25T16:42:00.532Z,95.60
2022-07-25T16:46:09.367Z,95.30
2022-07-25T16:50:18.193Z,94.70
2022-07-25T16:54:27.082Z,95.20
2022-07-25T16:58:35.700Z,93.70
2022-07-25T17:02:45.385Z,94.30
2022-07-25T17:06:54.076Z,92.10
2022-07-25T17:11:03.379Z,91.70
2022-07-25T17:15:12.837Z,90.70
2022-07-25T17:19:21.451Z,89.60
2022-07-25T17:23:30.386Z,90.10
2022-07-25T17:27:39.010Z,90.00
2022-07-25T17:31:47.748Z,88.70
2022-07-25T17:35:57.626Z,87.80
2022-07-25T17:40:06.980Z,85.80
2022-07-25T17:44:15.891Z,87.50
2022-07-25T17:48:24.948Z,85.00
2022-07-25T17:52:34.206Z,86.20
2022-07-25T17:56:43.113Z,84.20
2022-07-25T18:00:51.851Z,84.80
2022-07-25T18:05:00.466Z,82.80
2022-07-25T18:09:09.464Z,81.90
2022-07-25T18:13:19.631Z,82.00
2022-07-25T18:17:28.226Z,82.50
2022-07-25T18:21:36.878Z,85.80
2022-07-25T18:25:45.969Z,83.20
2022-07-25T18:29:54.578Z,83.90
2022-07-25T18:34:04.281Z,84.50
2022-07-25T18:38:13.021Z,85.80
2022-07-25T18:42:23.963Z,87.60
2022-07-25T18:46:33.159Z,87.00
2022-07-25T18:50:41.954Z,87.40
2022-07-25T18:54:51.510Z,84.60
2022-07-25T18:59:00.596Z,84.20
2022-07-25T19:03:11.327Z,84.40
2022-07-25T19:07:20.008Z,82.30
2022-07-25T19:11:28.629Z,83.10
2022-07-25T19:15:37.381Z,83.50
2022-07-25T19:19:45.984Z,84.50
2022-07-25T19:23:54.607Z,85.60
2022-07-25T19:28:04.551Z,86.00
2022-07-25T19:32:13.294Z,87.70
2022-07-25T19:36:23.509Z,87.80
2022-07-25T19:40:33.799Z,88.90
2022-07-25T19:44:42.443Z,89.80
2022-07-25T19:48:51.185Z,90.20
2022-07-25T19:53:00.038Z,90.30
2022-07-25T19:57:08.644Z,90.70
2022-07-25T20:01:18.196Z,90.80
2022-07-25T20:05:34.880Z,91.40
2022-07-25T20:09:43.862Z,91.70
2022-07-25T20:13:52.570Z,92.20
2022-07-25T20:18:01.323Z,92.50
2022-07-25T20:22:10.525Z,93.50
2022-07-25T20:26:19.253Z,93.20
2022-07-25T20:30:32.905Z,93.40
2022-07-25T20:34:38.214Z,93.50
2022-07-25T20:38:48.471Z,93.70
2022-07-25T20:42:57.235Z,93.90
2022-07-25T20:47:06.087Z,94.20
2022-07-25T20:51:15.206Z,95.00
2022-07-25T20:55:23.906Z,95.70
2022-07-25T20:59:33.354Z,97.60
2022-07-25T21:03:41.979Z,97.40
2022-07-25T21:07:50.725Z,98.90
2022-07-25T21:11:59.315Z,99.30
2022-07-25T21:16:08.074Z,99.90
2022-07-25T21:20:17.507Z,99.90
2022-07-25T21:24:26.147Z,99.90
2022-07-25T21:28:34.828Z,99.90
2022-07-25T21:32:44.363Z,99.90
2022-07-25T21:36:53.299Z,99.90
2022-07-25T21:41:01.914Z,99.90
2022-07-25T21:45:31.655Z,99.90
2022-07-25T21:49:58.564Z,99.90
2022-07-25T21:54:09.746Z,99.90
2022-07-25T21:58:20.168Z,99.90
2022-07-25T22:02:28.782Z,99.90
2022-07-25T22:06:37.713Z,99.90
2022-07-25T22:10:46.451Z,99.90
2022-07-25T22:14:55.127Z,99.90
2022-07-25T22:19:04.102Z,99.90
2022-07-25T22:23:12.895Z,99.90
2022-07-25T22:27:21.717Z,99.90
2022-07-25T22:31:30.677Z,99.90
2022-07-25T22:35:39.298Z,99.90
2022-07-25T22:39:47.842Z,99.90
2022-07-25T22:43:59.644Z,99.90
2022-07-25T22:48:07.334Z,99.90
2022-07-25T22:52:15.943Z,99.90
2022-07-25T22:56:25.154Z,99.90
2022-07-25T23:00:33.771Z,99.90
2022-07-25T23:04:42.401Z,99.90
2022-07-25T23:08:51.651Z,99.90
2022-07-25T23:13:00.244Z,99.90
2022-07-25T23:17:18.817Z,99.90
2022-07-25T23:21:33.665Z,99.90
2022-07-25T23:25:42.603Z,99.90
2022-07-25T23:29:51.374Z,99.90
2022-07-25T23:34:00.048Z,99.90
2022-07-25T23:38:08.745Z,99.90
2022-07-25T23:42:17.357Z,99.90
2022-07-25T23:46:29.646Z,99.90
2022-07-25T23:50:37.863Z,99.90
2022-07-25T23:54:46.533Z,99.90
2022-07-25T23:58:55.713Z,99.90
